Time;durP1;ratioP1;P1;durP2;ratioP2;P2;SDS_P1;SDS_P2;PMS_P1;PMS_P2;Temp;Humidity;BMP_temperature;BMP_pressure;BME280_temperature;BME280_humidity;BME280_pressure;Samples;Min_cycle;Max_cycle;Signal;HPM_P1;HPM_P2
2023/10/29 00:00:03;;;;;;;;;2.00;2.00;;;;;16.22;100.00;97937.84;6228518;28;96474;-64
2023/10/29 00:03:11;;;;;;;;;2.00;2.00;;;;;16.23;100.00;97933.19;6234831;28;96711;-65
2023/10/29 00:06:14;;;;;;;;;3.00;2.60;;;;;16.25;100.00;97945.41;6251757;28;96618;-65
2023/10/29 00:09:19;;;;;;;;;4.00;4.00;;;;;16.31;100.00;97940.75;6252736;28;96407;-65
2023/10/29 00:12:22;;;;;;;;;2.00;2.00;;;;;16.32;100.00;97942.41;6253653;28;96676;-65
2023/10/29 00:15:25;;;;;;;;;3.00;3.00;;;;;16.31;100.00;97944.31;6254506;28;96530;-65
2023/10/29 00:18:29;;;;;;;;;4.00;3.00;;;;;16.29;100.00;97941.03;6252851;28;96296;-64
2023/10/29 00:21:34;;;;;;;;;4.00;4.00;;;;;16.35;100.00;97939.09;6253609;28;97756;-64
2023/10/29 00:24:38;;;;;;;;;3.60;3.60;;;;;16.32;100.00;97935.03;6252414;27;96300;-64
2023/10/29 00:27:42;;;;;;;;;1.00;1.00;;;;;16.21;100.00;97921.78;6234045;28;97529;-65
2023/10/29 00:30:45;;;;;;;;;3.80;3.80;;;;;16.34;100.00;97932.84;6249887;28;98520;-64
2023/10/29 00:33:48;;;;;;;;;3.00;3.00;;;;;16.36;100.00;97925.22;6227206;28;96475;-66
2023/10/29 00:36:51;;;;;;;;;4.00;3.80;;;;;16.38;100.00;97933.09;6247073;28;98595;-65
2023/10/29 00:39:55;;;;;;;;;2.80;2.20;;;;;16.38;100.00;97922.22;6242420;28;96268;-65
2023/10/29 00:42:58;;;;;;;;;4.00;3.33;;;;;16.40;100.00;97937.16;6246241;28;96542;-64
2023/10/29 00:46:01;;;;;;;;;4.00;4.00;;;;;16.41;100.00;97940.69;6254007;28;96654;-64
2023/10/29 00:49:05;;;;;;;;;2.60;2.60;;;;;16.45;100.00;97948.00;6253804;28;96519;-64
2023/10/29 00:52:08;;;;;;;;;4.00;4.00;;;;;16.38;100.00;97931.19;6251958;28;96537;-66
2023/10/29 00:55:13;;;;;;;;;3.00;3.00;;;;;16.49;100.00;97948.25;6210990;28;96679;-66
2023/10/29 00:58:17;;;;;;;;;3.67;3.67;;;;;16.43;100.00;97936.59;6229615;28;96804;-65
2023/10/29 01:01:20;;;;;;;;;3.60;3.60;;;;;16.48;100.00;97952.06;6246170;27;98438;-65
2023/10/29 01:04:24;;;;;;;;;2.00;2.00;;;;;16.45;100.00;97950.72;6252734;28;96378;-64
2023/10/29 01:07:32;;;;;;;;;4.50;4.00;;;;;16.46;100.00;97957.81;6250838;28;98469;-65
2023/10/29 01:10:38;;;;;;;;;3.25;3.00;;;;;16.40;100.00;97956.22;6252203;28;98739;-65
2023/10/29 01:13:41;;;;;;;;;4.00;3.20;;;;;16.40;100.00;97956.22;6252515;28;96404;-65
2023/10/29 01:16:44;;;;;;;;;3.00;3.00;;;;;16.37;100.00;97954.03;6245816;28;96314;-66
2023/10/29 01:19:47;;;;;;;;;2.20;2.20;;;;;16.36;100.00;97963.31;6242669;28;96748;-65
2023/10/29 01:22:50;;;;;;;;;2.20;2.20;;;;;16.35;100.00;97960.88;6247272;28;96264;-65
2023/10/29 01:25:57;;;;;;;;;3.25;3.00;;;;;16.32;100.00;97961.44;6229133;28;96429;-65
2023/10/29 01:29:00;;;;;;;;;3.60;3.60;;;;;16.34;100.00;97951.06;6253518;28;96652;-65
2023/10/29 01:32:04;;;;;;;;;4.00;3.00;;;;;16.33;100.00;97950.25;6251453;28;96909;-66
2023/10/29 01:35:08;;;;;;;;;4.00;4.00;;;;;16.32;100.00;97945.13;6234948;27;96427;-67
2023/10/29 01:38:11;;;;;;;;;3.00;3.00;;;;;16.30;100.00;97948.09;6223736;28;96455;-67
2023/10/29 01:41:16;;;;;;;;;3.00;3.00;;;;;16.28;100.00;97949.47;6212325;28;96278;-68
2023/10/29 01:44:19;;;;;;;;;3.00;3.00;;;;;16.29;100.00;97951.91;6212422;28;96658;-68
2023/10/29 01:47:22;;;;;;;;;4.00;4.00;;;;;16.22;100.00;97942.44;6212584;28;96511;-68
2023/10/29 01:50:25;;;;;;;;;3.00;3.00;;;;;16.13;100.00;97944.94;6211195;28;97804;-68
2023/10/29 01:53:28;;;;;;;;;2.60;2.60;;;;;16.01;100.00;97950.72;6210747;28;96718;-68
2023/10/29 01:56:34;;;;;;;;;3.00;3.00;;;;;16.00;100.00;97956.41;6209433;28;97143;-68
2023/10/29 01:59:38;;;;;;;;;3.60;2.00;;;;;15.93;100.00;97964.09;6209506;28;96254;-68
2023/10/29 02:02:41;;;;;;;;;2.75;2.75;;;;;15.87;100.00;97962.47;6192202;28;98441;-68
2023/10/29 02:05:44;;;;;;;;;1.20;1.20;;;;;15.83;100.00;97969.56;6222148;28;96828;-68
2023/10/29 02:08:48;;;;;;;;;3.00;3.00;;;;;15.79;100.00;97960.31;6233666;28;96826;-68
2023/10/29 02:11:52;;;;;;;;;2.80;2.80;;;;;15.78;100.00;97970.38;6233948;28;96875;-68
2023/10/29 02:14:56;;;;;;;;;3.00;3.00;;;;;15.76;100.00;97961.69;6212729;28;98527;-68
2023/10/29 02:17:59;;;;;;;;;3.00;3.00;;;;;15.71;100.00;97964.44;6217239;28;96676;-68
2023/10/29 02:21:02;;;;;;;;;2.40;2.20;;;;;15.66;100.00;97967.16;6211811;28;96902;-68
2023/10/29 02:24:08;;;;;;;;;2.00;1.50;;;;;15.60;100.00;97966.34;6226620;28;96674;-68
2023/10/29 02:27:11;;;;;;;;;3.00;3.00;;;;;15.55;100.00;97963.66;6210849;28;96677;-68
2023/10/29 02:30:14;;;;;;;;;2.80;2.80;;;;;15.49;100.00;97970.16;6222508;28;96489;-68
2023/10/29 02:33:17;;;;;;;;;4.40;4.00;;;;;15.43;100.00;97968.56;6234471;28;96954;-67
2023/10/29 02:36:21;;;;;;;;;3.00;3.00;;;;;15.40;100.00;97954.69;6235147;28;96802;-67
2023/10/29 02:39:25;;;;;;;;;3.60;3.60;;;;;15.40;100.00;97958.22;6221423;28;96451;-68
2023/10/29 02:42:28;;;;;;;;;3.20;2.00;;;;;15.34;100.00;97948.47;6211837;28;97120;-68
2023/10/29 02:45:31;;;;;;;;;2.00;1.80;;;;;15.29;100.00;97944.97;6210764;28;96384;-68
2023/10/29 02:48:34;;;;;;;;;2.00;2.00;;;;;15.31;100.00;97942.75;6193981;28;98585;-68
2023/10/29 02:51:38;;;;;;;;;5.50;4.50;;;;;15.30;100.00;97941.94;6230509;28;96479;-68
2023/10/29 02:54:43;;;;;;;;;2.60;2.40;;;;;15.26;100.00;97940.88;6213847;28;96904;-68
2023/10/29 02:57:46;;;;;;;;;3.80;3.80;;;;;15.28;100.00;97948.75;6213735;28;97308;-68
2023/10/29 03:00:49;;;;;;;;;2.20;2.20;;;;;15.26;100.00;97951.75;6216341;28;97005;-68
2023/10/29 03:03:52;;;;;;;;;2.00;1.20;;;;;15.08;100.00;97925.16;6225562;28;96467;-68
2023/10/29 03:06:55;;;;;;;;;2.40;2.40;;;;;15.22;100.00;97947.94;6214464;28;96281;-67
2023/10/29 03:09:59;;;;;;;;;3.00;3.00;;;;;15.22;100.00;97947.94;6214005;28;96886;-68
2023/10/29 03:13:03;;;;;;;;;1.00;1.00;;;;;15.24;100.00;97955.84;6235634;28;97556;-68
2023/10/29 03:16:06;;;;;;;;;2.00;1.00;;;;;15.19;100.00;97953.94;6238678;28;96276;-68
2023/10/29 03:19:09;;;;;;;;;2.50;2.50;;;;;15.17;100.00;97961.53;6233843;28;98754;-67
2023/10/29 03:22:13;;;;;;;;;1.00;1.00;;;;;15.16;100.00;97958.00;6223445;28;96466;-67
2023/10/29 03:25:17;;;;;;;;;2.00;1.00;;;;;15.11;100.00;97959.91;6237628;28;96672;-67
2023/10/29 03:28:21;;;;;;;;;2.60;1.60;;;;;15.09;100.00;97965.63;6239370;28;96502;-67
2023/10/29 03:31:24;;;;;;;;;2.00;2.00;;;;;15.07;100.00;97961.53;6227411;28;96363;-68
2023/10/29 03:34:27;;;;;;;;;0.60;0.60;;;;;14.94;100.00;97951.25;6215082;28;96343;-67
2023/10/29 03:37:30;;;;;;;;;2.00;2.00;;;;;15.02;100.00;97961.53;6221442;28;96799;-67
2023/10/29 03:40:36;;;;;;;;;2.00;2.00;;;;;15.01;100.00;97965.34;6233581;28;96386;-67
2023/10/29 03:43:40;;;;;;;;;2.00;2.00;;;;;15.04;100.00;97965.63;6236393;28;96339;-68
2023/10/29 03:46:43;;;;;;;;;2.40;2.00;;;;;15.02;100.00;97959.66;6212833;28;96837;-68
2023/10/29 03:49:46;;;;;;;;;2.00;2.00;;;;;14.98;100.00;97961.28;6220081;28;96846;-67
2023/10/29 03:52:49;;;;;;;;;1.40;1.00;;;;;14.97;100.00;97966.97;6237031;28;97645;-64
2023/10/29 03:55:54;;;;;;;;;2.00;2.00;;;;;14.96;100.00;97968.88;6237059;28;96303;-65
2023/10/29 03:58:57;;;;;;;;;3.00;3.00;;;;;14.94;100.00;97967.53;6223408;28;96719;-65
2023/10/29 04:02:01;;;;;;;;;1.00;1.00;;;;;14.86;100.00;97974.28;6240031;28;96821;-65
2023/10/29 04:05:05;;;;;;;;;2.00;2.00;;;;;14.83;100.00;97965.91;6225708;28;96394;-64
2023/10/29 04:08:12;;;;;;;;;1.00;1.00;;;;;14.75;100.00;97967.25;6224371;28;98843;-64
2023/10/29 04:11:16;;;;;;;;;1.20;1.20;;;;;14.74;100.00;97977.28;6224902;28;96917;-64
2023/10/29 04:14:20;;;;;;;;;1.60;1.00;;;;;14.69;100.00;97969.16;6245497;28;96913;-65
2023/10/29 04:17:23;;;;;;;;;2.00;2.00;;;;;14.67;100.00;97982.16;6219433;28;98754;-65
2023/10/29 04:20:27;;;;;;;;;2.00;2.00;;;;;14.67;100.00;97979.44;6209178;28;96672;-65
2023/10/29 04:23:30;;;;;;;;;1.00;1.00;;;;;14.63;100.00;97983.78;6239187;28;96285;-65
2023/10/29 04:26:35;;;;;;;;;2.40;1.00;;;;;14.49;100.00;97973.72;6233395;28;96737;-65
2023/10/29 04:29:38;;;;;;;;;1.00;1.00;;;;;14.42;100.00;97978.59;6248699;28;96297;-64
2023/10/29 04:32:41;;;;;;;;;4.60;4.60;;;;;14.30;100.00;97973.41;6243350;28;96460;-64
2023/10/29 04:35:46;;;;;;;;;1.00;1.00;;;;;14.26;100.00;97983.16;6227531;28;97040;-65
2023/10/29 04:38:49;;;;;;;;;1.20;1.20;;;;;14.19;100.00;97964.41;6228014;28;96807;-64
2023/10/29 04:41:54;;;;;;;;;3.40;3.40;;;;;14.07;100.00;97980.13;6227030;28;96365;-65
2023/10/29 04:44:57;;;;;;;;;3.40;3.00;;;;;14.00;100.00;97979.53;6240224;28;96717;-64
2023/10/29 04:48:01;;;;;;;;;4.00;4.00;;;;;13.94;100.00;97977.06;6240601;28;96318;-65
2023/10/29 04:51:06;;;;;;;;;3.00;2.60;;;;;13.93;100.00;97968.13;6224718;28;96398;-65
2023/10/29 04:54:11;;;;;;;;;2.75;2.75;;;;;13.94;100.00;97958.09;6235856;28;96501;-65
2023/10/29 04:57:19;;;;;;;;;3.00;2.00;;;;;13.89;100.00;97962.44;6251183;28;96582;-65
2023/10/29 05:00:23;;;;;;;;;3.00;3.00;;;;;13.85;100.00;97955.91;6234747;28;96731;-64
2023/10/29 05:03:27;;;;;;;;;4.00;3.00;;;;;13.81;100.00;97956.72;6233116;28;96819;-68
2023/10/29 05:06:31;;;;;;;;;4.00;4.00;;;;;13.81;100.00;97965.66;6212510;28;96575;-69
2023/10/29 05:09:34;;;;;;;;;2.50;2.00;;;;;13.75;100.00;97961.28;6212728;28;96236;-68
2023/10/29 05:12:39;;;;;;;;;2.40;2.00;;;;;13.67;100.00;97959.09;6215720;28;97274;-67
2023/10/29 05:15:42;;;;;;;;;2.00;2.00;;;;;13.59;100.00;97966.88;6236542;28;96803;-68
2023/10/29 05:18:45;;;;;;;;;2.40;2.40;;;;;13.56;100.00;97959.28;6213587;28;98438;-67
2023/10/29 05:21:49;;;;;;;;;4.00;3.33;;;;;13.53;100.00;97965.25;6195277;28;96946;-67
2023/10/29 05:24:53;;;;;;;;;2.00;2.00;;;;;13.47;100.00;97967.13;6236117;28;96419;-68
2023/10/29 05:27:58;;;;;;;;;5.00;5.00;;;;;13.33;100.00;97953.22;6237169;28;96497;-68
2023/10/29 05:31:02;;;;;;;;;5.60;4.60;;;;;13.32;100.00;97948.88;6236731;28;96572;-68
2023/10/29 05:34:05;;;;;;;;;4.00;4.00;;;;;13.43;100.00;97964.13;6228811;28;98423;-67
2023/10/29 05:37:09;;;;;;;;;4.40;4.40;;;;;13.51;100.00;97964.69;6218858;28;96860;-67
2023/10/29 05:40:12;;;;;;;;;3.80;3.80;;;;;13.53;100.00;97973.38;6234799;28;96681;-67
2023/10/29 05:43:17;;;;;;;;;4.00;3.50;;;;;13.58;100.00;97976.94;6226973;28;96825;-67
2023/10/29 05:46:22;;;;;;;;;1.00;1.00;;;;;13.73;100.00;97982.41;6208809;28;96440;-67
2023/10/29 05:49:25;;;;;;;;;2.00;2.00;;;;;13.85;100.00;97985.72;6228109;28;96569;-68
2023/10/29 05:52:28;;;;;;;;;2.75;2.00;;;;;14.01;100.00;97992.00;6227524;28;96965;-67
2023/10/29 05:55:33;;;;;;;;;3.00;3.00;;;;;14.34;100.00;97988.03;6218106;28;96861;-67
2023/10/29 05:58:37;;;;;;;;;2.40;2.40;;;;;14.74;100.00;98003.59;6228613;28;96687;-67
2023/10/29 06:01:40;;;;;;;;;3.00;3.00;;;;;15.16;100.00;97996.00;6229947;28;97260;-67
2023/10/29 06:04:43;;;;;;;;;3.25;3.25;;;;;15.67;100.00;98006.81;6229968;28;96634;-67
2023/10/29 06:07:47;;;;;;;;;3.40;3.00;;;;;15.85;100.00;98003.50;6235004;28;96504;-68
2023/10/29 06:10:50;;;;;;;;;4.00;4.00;;;;;17.43;100.00;98011.50;6229909;28;96359;-67
2023/10/29 06:13:57;;;;;;;;;7.00;6.40;;;;;19.43;100.00;98017.31;6233137;28;98316;-64
2023/10/29 06:17:00;;;;;;;;;9.40;9.40;;;;;21.47;100.00;98009.97;6227168;28;98499;-66
2023/10/29 06:20:26;;;;;;;;;6.00;6.00;;;;;23.41;100.00;98025.16;6226975;28;99076;-65
2023/10/29 06:23:29;;;;;;;;;6.00;6.00;;;;;24.89;91.99;98028.63;6236233;28;98497;-64
2023/10/29 06:26:32;;;;;;;;;4.00;3.00;;;;;26.08;83.62;98038.03;6233453;28;96380;-65
2023/10/29 06:29:39;;;;;;;;;4.00;4.00;;;;;27.29;75.43;98043.47;6238241;28;98455;-64
2023/10/29 06:32:42;;;;;;;;;3.50;3.50;;;;;28.37;68.54;98052.38;6247457;28;96260;-65
2023/10/29 06:35:45;;;;;;;;;3.00;2.00;;;;;29.16;63.25;98046.69;6249178;28;96845;-65
2023/10/29 06:38:48;;;;;;;;;3.00;3.00;;;;;30.26;57.11;98058.00;6220321;28;97513;-64
2023/10/29 06:41:54;;;;;;;;;4.00;4.00;;;;;31.21;50.08;98071.84;6255648;28;97767;-66
2023/10/29 06:44:59;;;;;;;;;4.40;4.00;;;;;31.79;46.34;98064.63;6257795;28;96537;-65
2023/10/29 06:48:02;;;;;;;;;6.00;6.00;;;;;31.78;44.89;98068.59;6248535;28;96312;-66
2023/10/29 06:51:07;;;;;;;;;4.00;4.00;;;;;32.04;46.06;98055.72;6233097;28;98480;-68
2023/10/29 06:54:10;;;;;;;;;3.25;2.50;;;;;32.65;43.96;98055.13;6251108;28;96686;-67
2023/10/29 06:57:13;;;;;;;;;2.00;2.00;;;;;33.43;41.17;98047.22;6245423;28;96445;-66
2023/10/29 07:00:18;;;;;;;;;4.60;4.00;;;;;34.20;38.29;98041.09;6249088;28;96752;-66
2023/10/29 07:03:23;;;;;;;;;4.00;3.75;;;;;34.47;37.58;98035.09;6254765;28;97956;-66
2023/10/29 07:06:26;;;;;;;;;4.00;4.00;;;;;35.33;34.47;98043.00;6250766;27;96247;-66
2023/10/29 07:09:29;;;;;;;;;4.00;4.00;;;;;34.97;35.47;98030.25;6253982;28;96312;-66
2023/10/29 07:12:33;;;;;;;;;3.40;3.40;;;;;34.71;37.16;98028.69;6232403;28;96329;-65
2023/10/29 07:15:40;;;;;;;;;4.00;3.00;;;;;35.23;35.12;98024.22;6229924;28;96976;-66
2023/10/29 07:18:43;;;;;;;;;2.60;2.60;;;;;35.83;34.35;98025.94;6248362;28;96998;-66
2023/10/29 07:21:47;;;;;;;;;3.00;3.00;;;;;36.29;32.60;98025.66;6252619;28;96492;-67
2023/10/29 07:24:50;;;;;;;;;3.00;3.00;;;;;36.37;30.04;98029.97;6238478;28;96510;-65
2023/10/29 07:27:53;;;;;;;;;4.00;4.00;;;;;34.99;32.44;98022.25;6242968;28;96733;-66
2023/10/29 07:30:57;;;;;;;;;2.60;2.60;;;;;34.95;33.80;98019.44;6239793;28;97285;-66
2023/10/29 07:34:00;;;;;;;;;2.00;2.00;;;;;36.14;32.16;98027.78;6234466;28;98450;-66
2023/10/29 07:37:03;;;;;;;;;4.00;4.00;;;;;35.98;32.32;98025.44;6236362;28;96951;-66
2023/10/29 07:40:10;;;;;;;;;1.00;1.00;;;;;35.39;33.26;98024.53;6237480;27;96567;-66
2023/10/29 07:43:13;;;;;;;;;3.00;3.00;;;;;34.22;33.23;98016.31;6239022;28;96661;-66
2023/10/29 07:46:17;;;;;;;;;3.67;3.67;;;;;33.37;35.84;98006.91;6231687;28;97401;-67
2023/10/29 07:49:21;;;;;;;;;1.00;0.00;;;;;31.86;38.97;98010.97;6212182;27;97740;-66
2023/10/29 07:52:24;;;;;;;;;2.00;1.00;;;;;31.55;42.98;98012.19;6195608;28;97789;-67
2023/10/29 07:55:27;;;;;;;;;4.00;3.00;;;;;33.07;39.53;98007.94;6212752;28;97867;-67
2023/10/29 07:58:30;;;;;;;;;3.40;3.40;;;;;32.78;38.79;98019.34;6236707;28;96803;-66
2023/10/29 08:01:35;;;;;;;;;3.00;3.00;;;;;31.19;43.62;97996.22;6249967;28;96379;-66
2023/10/29 08:04:38;;;;;;;;;4.00;4.00;;;;;31.30;46.04;98008.31;6240774;28;96473;-66
2023/10/29 08:07:41;;;;;;;;;3.00;3.00;;;;;31.40;43.12;98000.09;6249519;27;96293;-66
2023/10/29 08:10:44;;;;;;;;;2.00;2.00;;;;;31.37;42.21;98011.97;6246795;28;97402;-66
2023/10/29 08:13:48;;;;;;;;;4.00;4.00;;;;;31.36;44.28;98007.59;6243435;28;96500;-65
2023/10/29 08:16:52;;;;;;;;;2.60;2.00;;;;;34.05;39.67;98005.88;6247460;28;96794;-65
2023/10/29 08:19:58;;;;;;;;;5.00;5.00;;;;;36.78;32.62;98014.00;6244038;27;96365;-65
2023/10/29 08:23:02;;;;;;;;;5.40;5.00;;;;;38.45;27.40;98001.38;6236758;28;96342;-65
2023/10/29 08:26:05;;;;;;;;;5.00;5.00;;;;;40.11;27.12;98002.06;6246270;28;96528;-65
2023/10/29 08:29:08;;;;;;;;;4.50;4.00;;;;;41.20;25.27;98004.06;6251702;28;97131;-66
2023/10/29 08:32:15;;;;;;;;;5.00;5.00;;;;;41.88;22.79;98012.19;6243075;28;96423;-69
2023/10/29 08:35:18;;;;;;;;;4.60;4.60;;;;;42.51;21.97;98004.91;6243712;28;96478;-67
2023/10/29 08:38:21;;;;;;;;;4.50;3.00;;;;;43.46;21.87;98001.50;6241911;28;96635;-66
2023/10/29 08:41:24;;;;;;;;;5.00;5.00;;;;;44.28;20.86;98004.03;6228797;28;98636;-66
2023/10/29 08:44:28;;;;;;;;;4.00;3.75;;;;;44.74;21.31;97999.22;6233089;28;96474;-67
2023/10/29 08:47:33;;;;;;;;;3.00;2.00;;;;;45.05;19.75;98007.66;6241801;27;96236;-67
2023/10/29 08:50:36;;;;;;;;;3.75;3.00;;;;;45.11;19.36;98005.75;6233994;28;97604;-67
2023/10/29 08:53:40;;;;;;;;;4.00;4.00;;;;;44.94;18.34;97995.91;6242949;28;96407;-66
2023/10/29 08:56:43;;;;;;;;;2.60;2.60;;;;;44.59;17.64;97995.38;6246856;28;98899;-67
2023/10/29 08:59:46;;;;;;;;;3.00;3.00;;;;;44.58;19.08;98008.00;6239167;28;96372;-66
2023/10/29 09:02:52;;;;;;;;;3.75;3.75;;;;;43.72;19.36;97998.53;6232316;28;97227;-67
2023/10/29 09:06:03;;;;;;;;;2.00;2.00;;;;;42.97;18.64;97983.47;6238661;28;96675;-66
2023/10/29 09:09:07;;;;;;;;;2.00;1.00;;;;;42.89;19.23;97994.28;6234232;28;96489;-66
2023/10/29 09:12:10;;;;;;;;;3.40;3.40;;;;;43.12;19.43;97985.34;6234902;28;96251;-66
2023/10/29 09:15:15;;;;;;;;;1.50;1.50;;;;;42.75;19.28;97986.28;6226065;28;96350;-66
2023/10/29 09:18:20;;;;;;;;;3.00;2.40;;;;;42.85;19.71;97984.31;6229219;28;97153;-67
2023/10/29 09:21:23;;;;;;;;;3.00;3.00;;;;;43.36;19.38;97990.53;6250774;27;96360;-66
2023/10/29 09:24:26;;;;;;;;;2.00;2.00;;;;;43.46;18.83;97987.31;6233549;27;96235;-67
2023/10/29 09:27:30;;;;;;;;;3.60;3.60;;;;;43.48;18.80;97982.00;6228699;28;98592;-67
2023/10/29 09:30:33;;;;;;;;;3.00;3.00;;;;;43.59;19.25;97982.38;6232534;28;98008;-67
2023/10/29 09:33:39;;;;;;;;;3.00;3.00;;;;;43.02;19.04;97982.88;6232455;28;98563;-66
2023/10/29 09:36:43;;;;;;;;;1.60;1.60;;;;;42.20;19.77;97984.88;6240912;28;96788;-67
2023/10/29 09:39:46;;;;;;;;;2.00;2.00;;;;;42.02;20.42;97970.50;6237895;28;97158;-66
2023/10/29 09:42:53;;;;;;;;;2.00;1.40;;;;;42.40;20.20;97967.66;6229863;28;98367;-66
2023/10/29 09:45:57;;;;;;;;;1.00;1.00;;;;;42.43;20.20;97961.84;6203716;28;96637;-67
2023/10/29 09:49:01;;;;;;;;;2.00;2.00;;;;;42.42;19.58;97962.31;6231857;28;99162;-68
2023/10/29 09:52:06;;;;;;;;;3.00;3.00;;;;;42.61;19.65;97955.59;6233263;28;96598;-67
2023/10/29 09:55:10;;;;;;;;;2.00;2.00;;;;;42.40;19.44;97959.16;6224508;28;96255;-68
2023/10/29 09:58:13;;;;;;;;;2.00;2.00;;;;;42.61;19.31;97952.75;6223587;28;96245;-67
2023/10/29 10:01:17;;;;;;;;;3.00;3.00;;;;;42.62;19.01;97945.81;6228051;28;96797;-68
2023/10/29 10:04:21;;;;;;;;;2.00;2.00;;;;;42.74;19.19;97934.47;6230287;28;96615;-68
2023/10/29 10:07:26;;;;;;;;;2.00;2.00;;;;;42.40;19.12;97931.63;6223188;28;96124;-68
2023/10/29 10:10:40;;;;;;;;;2.00;2.00;;;;;42.60;19.20;97934.94;6224917;28;96268;-68
2023/10/29 10:13:43;;;;;;;;;2.00;2.00;;;;;42.37;19.21;97928.91;6231431;28;96364;-68
2023/10/29 10:16:46;;;;;;;;;3.00;2.00;;;;;42.00;19.39;97924.88;6229665;27;96756;-68
2023/10/29 10:20:06;;;;;;;;;3.00;3.00;;;;;42.02;19.51;97916.72;6232591;28;97830;-68
2023/10/29 10:23:11;;;;;;;;;2.00;2.00;;;;;41.94;19.89;97913.31;6226449;28;96575;-67
2023/10/29 10:26:17;;;;;;;;;2.50;2.50;;;;;42.20;19.75;97908.41;6225439;28;97847;-67
2023/10/29 10:29:20;;;;;;;;;1.60;1.60;;;;;41.86;19.86;97898.63;6237546;28;98425;-67
2023/10/29 10:32:24;;;;;;;;;2.60;2.00;;;;;41.59;19.96;97903.13;6228274;28;96781;-67
2023/10/29 10:35:39;;;;;;;;;1.00;1.00;;;;;41.66;20.68;97898.03;6236036;28;96284;-67
2023/10/29 10:38:52;;;;;;;;;2.00;2.00;;;;;41.20;21.25;97902.25;6220195;28;97840;-67
2023/10/29 10:41:55;;;;;;;;;2.00;2.00;;;;;40.79;21.20;97900.22;6207676;28;98559;-67
2023/10/29 10:45:04;;;;;;;;;3.00;3.00;;;;;41.32;21.04;97895.03;6241446;28;96539;-67
2023/10/29 10:48:08;;;;;;;;;3.00;3.00;;;;;40.33;22.13;97887.34;6225534;28;96407;-67
2023/10/29 10:51:13;;;;;;;;;1.00;1.00;;;;;41.05;21.33;97890.59;6241126;28;96473;-67
2023/10/29 10:54:18;;;;;;;;;2.00;2.00;;;;;41.37;21.35;97888.84;6224474;28;97617;-70
2023/10/29 10:57:22;;;;;;;;;1.00;1.00;;;;;40.68;20.87;97897.69;6220796;28;98603;-70
2023/10/29 11:00:26;;;;;;;;;4.00;3.00;;;;;39.61;22.10;97884.69;6198123;28;96917;-70
2023/10/29 11:03:32;;;;;;;;;1.60;1.60;;;;;40.20;22.22;97878.03;6214600;28;99968;-70
2023/10/29 11:06:38;;;;;;;;;3.00;3.00;;;;;40.45;22.29;97880.19;6216886;28;98313;-69
2023/10/29 11:09:42;;;;;;;;;3.00;3.00;;;;;40.88;21.46;97879.78;6211787;28;97943;-71
2023/10/29 11:12:46;;;;;;;;;3.00;3.00;;;;;41.18;21.03;97879.31;6217389;28;97383;-70
2023/10/29 11:15:49;;;;;;;;;4.00;4.00;;;;;40.60;21.69;97876.50;6217700;28;99067;-70
2023/10/29 11:18:53;;;;;;;;;3.25;3.00;;;;;40.21;22.28;97860.63;6220406;28;96952;-70
2023/10/29 11:22:19;;;;;;;;;4.00;3.00;;;;;39.84;21.68;97870.44;6213279;28;97998;-70
2023/10/29 11:25:31;;;;;;;;;2.00;2.00;;;;;39.33;22.32;97865.63;6221964;28;98345;-69
2023/10/29 11:28:45;;;;;;;;;2.60;2.60;;;;;39.34;22.59;97853.88;6224965;28;97295;-70
2023/10/29 11:31:48;;;;;;;;;3.00;3.00;;;;;39.84;21.92;97852.69;6220960;28;97130;-71
2023/10/29 11:35:21;;;;;;;;;2.00;2.00;;;;;39.87;22.17;97848.22;6226337;28;97160;-71
2023/10/29 11:38:30;;;;;;;;;2.20;2.20;;;;;40.03;22.08;97846.16;6219782;28;97976;-71
2023/10/29 11:41:34;;;;;;;;;3.00;2.40;;;;;39.97;21.64;97836.66;6229432;28;97458;-71
2023/10/29 11:44:38;;;;;;;;;3.00;3.00;;;;;39.61;22.76;97845.19;6228488;28;96721;-68
2023/10/29 11:48:10;;;;;;;;;3.80;3.20;;;;;39.53;22.22;97838.13;6208699;28;98623;-68
2023/10/29 11:51:22;;;;;;;;;4.00;3.00;;;;;39.08;23.10;97837.94;6226182;27;96581;-67
2023/10/29 11:54:25;;;;;;;;;3.00;3.00;;;;;38.46;23.70;97836.78;6227283;28;96785;-67
2023/10/29 11:57:28;;;;;;;;;4.00;4.00;;;;;37.51;24.68;97833.59;6229486;28;96875;-67
2023/10/29 12:00:38;;;;;;;;;3.00;3.00;;;;;37.11;25.05;97837.44;6222166;28;96669;-67
2023/10/29 12:03:51;;;;;;;;;3.00;3.00;;;;;37.12;25.04;97822.16;6220190;28;96760;-66
2023/10/29 12:06:56;;;;;;;;;3.00;3.00;;;;;37.21;25.24;97814.78;6219485;28;96944;-67
2023/10/29 12:10:00;;;;;;;;;4.00;4.00;;;;;36.93;25.83;97811.56;6221376;28;96789;-66
2023/10/29 12:13:03;;;;;;;;;4.00;4.00;;;;;36.04;26.01;97819.00;6224116;28;96465;-66
2023/10/29 12:16:07;;;;;;;;;1.75;1.75;;;;;34.81;28.39;97806.66;6224274;28;96580;-66
2023/10/29 12:19:10;;;;;;;;;3.60;3.00;;;;;33.62;30.34;97800.94;6222565;28;96607;-66
2023/10/29 12:22:17;;;;;;;;;2.00;2.00;;;;;32.34;32.83;97788.66;6233839;27;96772;-65
2023/10/29 12:25:21;;;;;;;;;4.00;3.00;;;;;31.51;37.12;97776.53;6231476;28;96701;-65
2023/10/29 12:28:26;;;;;;;;;4.00;4.00;;;;;31.51;36.68;97771.78;6217120;27;97303;-65
2023/10/29 12:31:29;;;;;;;;;3.60;3.20;;;;;30.90;38.53;97786.28;6219009;28;96463;-65
2023/10/29 12:34:48;;;;;;;;;4.00;3.00;;;;;30.72;38.53;97783.34;6224416;28;96512;-65
2023/10/29 12:37:55;;;;;;;;;3.00;3.00;;;;;30.23;41.10;97786.28;6223412;28;96679;-66
2023/10/29 12:41:06;;;;;;;;;2.00;2.00;;;;;30.00;41.01;97775.28;6229481;28;97620;-66
2023/10/29 12:44:16;;;;;;;;;2.00;2.00;;;;;29.72;42.17;97774.81;6230667;28;96275;-65
2023/10/29 12:47:19;;;;;;;;;2.00;2.00;;;;;29.31;43.36;97770.22;6230064;28;97655;-66
2023/10/29 12:50:22;;;;;;;;;3.00;3.00;;;;;29.01;43.77;97758.97;6212962;28;96433;-66
2023/10/29 12:53:28;;;;;;;;;4.00;4.00;;;;;28.83;43.24;97759.44;6225618;28;96828;-66
2023/10/29 12:56:31;;;;;;;;;3.00;3.00;;;;;28.75;42.98;97766.03;6216105;28;97079;-66
2023/10/29 12:59:34;;;;;;;;;2.25;2.25;;;;;28.63;42.19;97752.31;6232651;28;96977;-66
2023/10/29 13:02:38;;;;;;;;;3.00;3.00;;;;;28.28;44.20;97776.56;6227574;28;97689;-66
2023/10/29 13:05:41;;;;;;;;;3.00;3.00;;;;;27.69;49.62;97774.03;6190196;28;96681;-66
2023/10/29 13:08:46;;;;;;;;;2.00;2.00;;;;;27.48;50.40;97779.84;6232273;28;96925;-66
2023/10/29 13:11:51;;;;;;;;;3.75;3.00;;;;;27.20;51.30;97781.91;6228471;27;96804;-67
2023/10/29 13:14:55;;;;;;;;;3.00;3.00;;;;;27.29;51.16;97777.81;6230463;27;96910;-66
2023/10/29 13:17:59;;;;;;;;;3.00;3.00;;;;;27.12;55.02;97765.13;6225748;28;96704;-65
2023/10/29 13:21:03;;;;;;;;;5.00;5.00;;;;;26.57;59.47;97765.22;6213219;28;96471;-66
2023/10/29 13:24:08;;;;;;;;;3.00;3.00;;;;;26.26;61.39;97763.16;6214932;28;97813;-66
2023/10/29 13:27:12;;;;;;;;;2.00;2.00;;;;;25.98;61.97;97762.31;6214483;28;96662;-66
2023/10/29 13:30:15;;;;;;;;;5.20;4.80;;;;;25.87;64.48;97765.56;6224182;28;99004;-66
2023/10/29 13:33:18;;;;;;;;;4.00;3.20;;;;;25.77;66.88;97763.28;6233985;28;96813;-64
2023/10/29 13:36:22;;;;;;;;;4.00;4.00;;;;;25.59;70.21;97759.19;6213443;28;98480;-66
2023/10/29 13:39:26;;;;;;;;;3.00;3.00;;;;;25.41;70.76;97760.53;6221894;28;96611;-65
2023/10/29 13:42:30;;;;;;;;;2.00;2.00;;;;;25.17;72.67;97772.34;6211927;28;97053;-65
2023/10/29 13:45:33;;;;;;;;;4.40;4.00;;;;;24.95;75.53;97779.13;6220156;28;96357;-65
2023/10/29 13:48:37;;;;;;;;;4.00;4.00;;;;;24.74;78.69;97786.63;6222180;28;96547;-65
2023/10/29 13:51:41;;;;;;;;;6.67;6.00;;;;;24.46;79.86;97777.34;6210722;28;98588;-65
2023/10/29 13:54:46;;;;;;;;;4.00;3.00;;;;;24.16;82.68;97776.63;6193741;28;97978;-65
2023/10/29 13:57:49;;;;;;;;;5.00;5.00;;;;;24.00;85.23;97775.59;6210302;28;96315;-64
2023/10/29 14:00:52;;;;;;;;;4.20;4.20;;;;;23.89;84.84;97775.22;6209436;28;96858;-64
2023/10/29 14:03:56;;;;;;;;;4.00;4.00;;;;;23.72;87.46;97781.66;6223774;28;96454;-65
2023/10/29 14:06:59;;;;;;;;;5.60;5.60;;;;;23.51;90.78;97772.56;6219233;28;97658;-65
2023/10/29 14:10:04;;;;;;;;;7.00;6.00;;;;;23.07;92.57;97781.31;6208683;28;96915;-63
2023/10/29 14:13:07;;;;;;;;;5.25;5.25;;;;;23.06;91.79;97772.28;6224946;27;98753;-64
2023/10/29 14:16:11;;;;;;;;;4.00;4.00;;;;;23.04;93.42;97777.28;6206076;28;99626;-65
2023/10/29 14:19:15;;;;;;;;;3.00;3.00;;;;;23.08;94.05;97769.19;6217661;28;96291;-64
2023/10/29 14:22:21;;;;;;;;;3.80;3.20;;;;;23.01;94.64;97774.41;6237549;27;96802;-64